Seaspan Champion — VDPS — position and weather

sailwx.info

Track history (hours):
 
Tides and Currents Weather Stations Pressure Air Temp Water Temp Dewpoint Dewpoint Depression Visibility Wind Speed Wind Dir Waves Ship Positions

Seaspan Champion

Last reported at 2016-Jun-27 14:33 UTC. Time now 2016-Jun-27 15:05 UTC.
Position N 49°52' W 124°34'.

Length 24 m; draft 5 m.

Type: Towing. MMSI: 316003661.

Date/timePositionNaut miles runAvg speedWind from/ knotsBaromVisibWave heightAir tempDewpointWater temp
2016-Jun-27 14:33N 49°52' W 124°34'2 2.2
2016-Jun-27 13:33N 49°50' W 124°33'3 2.6
2016-Jun-27 12:33N 49°47' W 124°32'3 2.9
2016-Jun-27 11:34N 49°46' W 124°28'3 3.1
2016-Jun-27 10:33N 49°44' W 124°24'3 3.4
2016-Jun-27 09:32N 49°42' W 124°20'3 3.5
2016-Jun-27 08:32N 49°39' W 124°16'3 3.4
2016-Jun-27 07:33N 49°37' W 124°13'4 3.6
2016-Jun-27 06:33N 49°34' W 124°09'4 4.4
2016-Jun-27 05:34N 49°30' W 124°05'4 4.3
2016-Jun-27 04:34N 49°27' W 124°00'5 4.8
2016-Jun-27 03:33N 49°25' W 123°55'5 5.0
2016-Jun-27 02:33N 49°21' W 123°48'5 4.8
2016-Jun-27 01:34N 49°18' W 123°43'5 4.9
2016-Jun-27 00:33N 49°15' W 123°37'5 4.8
2016-Jun-26 23:34N 49°12' W 123°31'4 4.1
2016-Jun-26 22:33N 49°10' W 123°26'4 3.7
2016-Jun-26 21:34N 49°07' W 123°22'4 4.1
2016-Jun-26 20:33N 49°07' W 123°16'7 6.9
2016-Jun-26 19:34N 49°07' W 123°05'6 5.7
2016-Jun-26 18:33N 49°09' W 122°57'1 1.4
2016-Jun-26 17:33N 49°10' W 122°55'1 0.7
2016-Jun-26 16:33N 49°11' W 122°55'1 1.2
2016-Jun-26 15:33N 49°12' W 122°55'0 0.0
2016-Jun-26 14:33N 49°12' W 122°55'0 0.0
2016-Jun-26 13:33N 49°12' W 122°55'0 0.0
2016-Jun-26 12:33N 49°12' W 122°55'0 0.0
2016-Jun-26 11:33N 49°12' W 122°55'0 0.0
2016-Jun-26 10:33N 49°12' W 122°55'0 0.0
2016-Jun-26 09:33N 49°12' W 122°55'0 0.0
2016-Jun-26 08:33N 49°12' W 122°55'0 0.0
2016-Jun-26 07:33N 49°12' W 122°55'0 0.0
2016-Jun-26 06:33N 49°12' W 122°55'2 2.4
2016-Jun-26 05:33N 49°10' W 122°56'4 4.3
2016-Jun-26 04:33N 49°09' W 123°02'7 6.8
2016-Jun-26 03:34N 49°08' W 123°13'7 6.8
2016-Jun-26 02:33N 49°05' W 123°22'7 6.6
2016-Jun-26 01:34N 49°02' W 123°32'6 6.2
2016-Jun-26 00:33N 48°57' W 123°37'5 4.6
2016-Jun-25 23:33N 48°53' W 123°37'1 0.6
2016-Jun-25 22:29N 48°53' W 123°38'2 2.2
2016-Jun-25 21:33N 48°54' W 123°37'6 5.9
2016-Jun-25 20:33N 49°00' W 123°36'6 5.8
2016-Jun-25 19:33N 49°03' W 123°28'6 6.1
2016-Jun-25 18:33N 49°06' W 123°20'7 7.0
2016-Jun-25 17:34N 49°07' W 123°09'7 7.0
2016-Jun-25 16:33N 49°09' W 122°60'1 1.4
2016-Jun-25 15:33N 49°09' W 122°57'0 0.0
2016-Jun-25 14:33N 49°09' W 122°57'0 0.2
2016-Jun-25 13:33N 49°09' W 122°58'4 3.6
2016-Jun-25 12:33N 49°08' W 123°03'5 5.3
2016-Jun-25 11:33N 49°07' W 123°11'4 4.4
2016-Jun-25 10:33N 49°06' W 123°17'6 6.4
2016-Jun-25 09:33N 49°07' W 123°27'8 8.4
2016-Jun-25 08:33N 49°10' W 123°39'8 8.5
2016-Jun-25 07:33N 49°12' W 123°52'3 3.3
2016-Jun-25 06:33N 49°09' W 123°51'3 3.5
2016-Jun-25 05:34N 49°12' W 123°53'5 5.1
2016-Jun-25 04:33N 49°15' W 123°47'5 5.2
2016-Jun-25 03:33N 49°18' W 123°40'5 5.1
2016-Jun-25 02:34N 49°21' W 123°33'5 5.1
2016-Jun-25 01:34N 49°23' W 123°27'4 3.9
2016-Jun-25 00:33N 49°27' W 123°28'3 2.7
2016-Jun-24 23:19N 49°30' W 123°29'3 4.2
2016-Jun-24 22:34N 49°27' W 123°28'6 6.4
2016-Jun-24 21:33N 49°21' W 123°27'7 6.8
2016-Jun-24 20:33N 49°16' W 123°19'1 1.3
2016-Jun-24 19:34N 49°16' W 123°17'5 4.9
2016-Jun-24 18:33N 49°15' W 123°24'6 5.9
2016-Jun-24 17:33N 49°15' W 123°33'6 5.8
2016-Jun-24 16:33N 49°14' W 123°42'6 5.8
2016-Jun-24 15:33N 49°12' W 123°51'3 3.2
2016-Jun-24 14:33N 49°09' W 123°53'1 1.2
2016-Jun-24 13:34N 49°09' W 123°51'1 1.5
2016-Jun-24 12:33N 49°10' W 123°53'2 2.5
2016-Jun-24 11:33N 49°12' W 123°54'1 1.0
2016-Jun-24 10:33N 49°13' W 123°55'2 1.8
2016-Jun-24 09:33N 49°12' W 123°53'6 5.6
2016-Jun-24 08:33N 49°14' W 123°44'6 5.6
2016-Jun-24 07:34N 49°14' W 123°36'13 4.4
2016-Jun-24 04:33N 49°17' W 123°16'6 6.4
2016-Jun-24 03:34N 49°19' W 123°06'0 0.0
2016-Jun-24 02:33N 49°19' W 123°06'0 0.0
2016-Jun-24 01:34N 49°19' W 123°06'0 0.0
2016-Jun-24 00:33N 49°19' W 123°06'0 0.0
2016-Jun-23 23:34N 49°19' W 123°06'0 0.0
2016-Jun-23 22:33N 49°19' W 123°06'0 0.0
2016-Jun-23 21:33N 49°19' W 123°06'0 0.0
2016-Jun-23 20:33N 49°19' W 123°06'  
Track history (hours):
 
Tides and Currents Weather Stations Pressure Air Temp Water Temp Dewpoint Dewpoint Depression Visibility Wind Speed Wind Dir Waves Ship Positions

Seaspan Champion

Last reported at 2016-Jun-27 14:33 UTC. Time now 2016-Jun-27 15:05 UTC.
Position N 49°52' W 124°34'.

Length 24 m; draft 5 m.

Type: Towing. MMSI: 316003661.

Date/timePositionNaut miles runAvg speedWind from/ knotsBaromVisibWave heightAir tempDewpointWater temp
2016-Jun-27 14:33N 49°52' W 124°34'2 2.2
2016-Jun-27 13:33N 49°50' W 124°33'3 2.6
2016-Jun-27 12:33N 49°47' W 124°32'3 2.9
2016-Jun-27 11:34N 49°46' W 124°28'3 3.1
2016-Jun-27 10:33N 49°44' W 124°24'3 3.4
2016-Jun-27 09:32N 49°42' W 124°20'3 3.5
2016-Jun-27 08:32N 49°39' W 124°16'3 3.4
2016-Jun-27 07:33N 49°37' W 124°13'4 3.6
2016-Jun-27 06:33N 49°34' W 124°09'4 4.4
2016-Jun-27 05:34N 49°30' W 124°05'4 4.3
2016-Jun-27 04:34N 49°27' W 124°00'5 4.8
2016-Jun-27 03:33N 49°25' W 123°55'5 5.0
2016-Jun-27 02:33N 49°21' W 123°48'5 4.8
2016-Jun-27 01:34N 49°18' W 123°43'5 4.9
2016-Jun-27 00:33N 49°15' W 123°37'5 4.8
2016-Jun-26 23:34N 49°12' W 123°31'4 4.1
2016-Jun-26 22:33N 49°10' W 123°26'4 3.7
2016-Jun-26 21:34N 49°07' W 123°22'4 4.1
2016-Jun-26 20:33N 49°07' W 123°16'7 6.9
2016-Jun-26 19:34N 49°07' W 123°05'6 5.7
2016-Jun-26 18:33N 49°09' W 122°57'1 1.4
2016-Jun-26 17:33N 49°10' W 122°55'1 0.7
2016-Jun-26 16:33N 49°11' W 122°55'1 1.2
2016-Jun-26 15:33N 49°12' W 122°55'0 0.0
2016-Jun-26 14:33N 49°12' W 122°55'0 0.0
2016-Jun-26 13:33N 49°12' W 122°55'0 0.0
2016-Jun-26 12:33N 49°12' W 122°55'0 0.0
2016-Jun-26 11:33N 49°12' W 122°55'0 0.0
2016-Jun-26 10:33N 49°12' W 122°55'0 0.0
2016-Jun-26 09:33N 49°12' W 122°55'0 0.0
2016-Jun-26 08:33N 49°12' W 122°55'0 0.0
2016-Jun-26 07:33N 49°12' W 122°55'0 0.0
2016-Jun-26 06:33N 49°12' W 122°55'2 2.4
2016-Jun-26 05:33N 49°10' W 122°56'4 4.3
2016-Jun-26 04:33N 49°09' W 123°02'7 6.8
2016-Jun-26 03:34N 49°08' W 123°13'7 6.8
2016-Jun-26 02:33N 49°05' W 123°22'7 6.6
2016-Jun-26 01:34N 49°02' W 123°32'6 6.2
2016-Jun-26 00:33N 48°57' W 123°37'5 4.6
2016-Jun-25 23:33N 48°53' W 123°37'1 0.6
2016-Jun-25 22:29N 48°53' W 123°38'2 2.2
2016-Jun-25 21:33N 48°54' W 123°37'6 5.9
2016-Jun-25 20:33N 49°00' W 123°36'6 5.8
2016-Jun-25 19:33N 49°03' W 123°28'6 6.1
2016-Jun-25 18:33N 49°06' W 123°20'7 7.0
2016-Jun-25 17:34N 49°07' W 123°09'7 7.0
2016-Jun-25 16:33N 49°09' W 122°60'1 1.4
2016-Jun-25 15:33N 49°09' W 122°57'0 0.0
2016-Jun-25 14:33N 49°09' W 122°57'0 0.2
2016-Jun-25 13:33N 49°09' W 122°58'4 3.6
2016-Jun-25 12:33N 49°08' W 123°03'5 5.3
2016-Jun-25 11:33N 49°07' W 123°11'4 4.4
2016-Jun-25 10:33N 49°06' W 123°17'6 6.4
2016-Jun-25 09:33N 49°07' W 123°27'8 8.4
2016-Jun-25 08:33N 49°10' W 123°39'8 8.5
2016-Jun-25 07:33N 49°12' W 123°52'3 3.3
2016-Jun-25 06:33N 49°09' W 123°51'3 3.5
2016-Jun-25 05:34N 49°12' W 123°53'5 5.1
2016-Jun-25 04:33N 49°15' W 123°47'5 5.2
2016-Jun-25 03:33N 49°18' W 123°40'5 5.1
2016-Jun-25 02:34N 49°21' W 123°33'5 5.1
2016-Jun-25 01:34N 49°23' W 123°27'4 3.9
2016-Jun-25 00:33N 49°27' W 123°28'3 2.7
2016-Jun-24 23:19N 49°30' W 123°29'3 4.2
2016-Jun-24 22:34N 49°27' W 123°28'6 6.4
2016-Jun-24 21:33N 49°21' W 123°27'7 6.8
2016-Jun-24 20:33N 49°16' W 123°19'1 1.3
2016-Jun-24 19:34N 49°16' W 123°17'5 4.9
2016-Jun-24 18:33N 49°15' W 123°24'6 5.9
2016-Jun-24 17:33N 49°15' W 123°33'6 5.8
2016-Jun-24 16:33N 49°14' W 123°42'6 5.8
2016-Jun-24 15:33N 49°12' W 123°51'3 3.2
2016-Jun-24 14:33N 49°09' W 123°53'1 1.2
2016-Jun-24 13:34N 49°09' W 123°51'1 1.5
2016-Jun-24 12:33N 49°10' W 123°53'2 2.5
2016-Jun-24 11:33N 49°12' W 123°54'1 1.0
2016-Jun-24 10:33N 49°13' W 123°55'2 1.8
2016-Jun-24 09:33N 49°12' W 123°53'6 5.6
2016-Jun-24 08:33N 49°14' W 123°44'6 5.6
2016-Jun-24 07:34N 49°14' W 123°36'13 4.4
2016-Jun-24 04:33N 49°17' W 123°16'6 6.4
2016-Jun-24 03:34N 49°19' W 123°06'0 0.0
2016-Jun-24 02:33N 49°19' W 123°06'0 0.0
2016-Jun-24 01:34N 49°19' W 123°06'0 0.0
2016-Jun-24 00:33N 49°19' W 123°06'0 0.0
2016-Jun-23 23:34N 49°19' W 123°06'0 0.0
2016-Jun-23 22:33N 49°19' W 123°06'0 0.0
2016-Jun-23 21:33N 49°19' W 123°06'0 0.0
2016-Jun-23 20:33N 49°19' W 123°06'  

Dump ship's entire track history